Terminal Aerodrome Forecast
Issued by NWS

Home | Current Version | Previous Version | Graphics & Text | Print | Product List | Glossary On
Versions: 1 2 3 4 5 6 7 8 9 10 11 12 13 14 15 16 17 18 19 20
000
FTUS43 KFGF 230743 AAA
TAFBJI
TAF AMD
KBJI 230743Z 2308/2406 17015KT P6SM BKN060
     FM231000 17013KT P6SM SCT060
     FM231400 17015KT P6SM BKN050
     FM232000 17007KT P6SM -RA BKN035
     FM232300 16005KT P6SM OVC012=

USA.gov is the U.S. government's official web portal to all federal, state and local government web resources and services.